Mayer, MN (55360)

5:28 AM CST on February 11, 2016 (GMT -0600)
Mayer, MN | | Change Station
CLOSE
Current Station
Personal Weather Station
Location: Mayer, MN
Elevation: 977 ft
Nearby Weather Stations

Elev 977 ft 44.89 °N, 93.90 °W | Updated 4 seconds ago

Mostly Cloudy
Mostly Cloudy
0.1 °F
Feels Like 0 °F
N
0.0
Wind Variable Wind from North
Gusts 0.0 mph

Today
High -- | Low -- °F
--% Chance of Precip.
Yesterday
High -- | Low -- °F
Precip. -- in
Pressure 30.29 in
Visibility 10.0 miles
Clouds Clear
Windchill 0 °F
Dew Point -9 °F
Humidity 64%
Rainfall 0.00 in
Snow Depth Not available.
7:22 AM 5:37 PM
Waxing Crescent, 11% visible
METAR KGYL 111115Z AUTO 00000KT 10SM CLR M17/M19 A3029 RMK AO2 T11691186
Pressure 30.29 in
Visibility 10.0 miles
Clouds Clear
Windchill 0 °F
Dew Point -9 °F
Humidity 64%
Rainfall 0.00 in
Snow Depth Not available.
7:22 AM 5:37 PM
Waxing Crescent, 11% visible
METAR KGYL 111115Z AUTO 00000KT 10SM CLR M17/M19 A3029 RMK AO2 T11691186

10-Day Weather Forecast

Almanac

Astronomy

Feb. 11, 2016 Rise Set
Actual Time
Civil Twilight
Nautical Twilight
Astronomical Twilight
Moon
Length of Visible Light
Length of Day
Tomorrow will be .
, % of the Moon is Illuminated

Today's Extremes

State Highs State Lows

Community

WunderPhotos

Upload Photos

1,892,030 photos uploaded!

WunderBlog® & News

Nearby

Air Quality

  Air Quality AQ Index Pollutant
Not available.

Snow Depth

Station Depth Elevation

Earthquake Activity

City Distance Mag. Time & Date
Minimum magnitude displayed is 2.5.

Coastal Water Temperatures

Place Temperature

Stations

Nearby Weather Stations

Station Location Temp. Windchill Dew Point Humidity Wind Precip. Elev Updated Type
                   

Watches & Warnings

There are currently no watches in effect.